Mount Vernon, Indiana
Current Conditions -  °F | °C
As of 1:35 PM on Thursday 27 Nov 2014 (Local Time) from KEHR Reporting Station
Overcast Overcast  
Wind Chill: 20°   Ceiling: 2100
Heat Index: 30°   Visibility: 10mi
Dew Point: 25°   Wind: 14mph
Humidity: 80%   Direction: 280°W
Pressure: 30.45"   Gusts: 18mph
Location:  37.93°N, 87.9°W
Report Text: KEHR 271935Z AUTO 28012G16KT 10SM OVC021 M01/M04 A3045 RMK AO1
Loading
Personal Weather Stations






























Interactive Weather Map New forecast layout! Learn more

10-Day Weather Forecast

Advertisements
Track Severe Weather on mobile